createdAt,value
2022-09-24T00:01:23.941Z,95.24
2022-09-24T00:04:27.404Z,94.71
2022-09-24T00:07:28.777Z,93.99
2022-09-24T00:10:30.154Z,94.57
2022-09-24T00:13:33.487Z,93.85
2022-09-24T00:16:35.785Z,94.60
2022-09-24T00:19:37.317Z,95.46
2022-09-24T00:22:38.702Z,95.62
2022-09-24T00:26:05.526Z,94.95
2022-09-24T00:29:08.802Z,94.36
2022-09-24T00:32:10.347Z,95.00
2022-09-24T00:35:11.735Z,95.16
2022-09-24T00:38:13.218Z,95.46
2022-09-24T00:41:14.619Z,96.03
2022-09-24T00:44:54.006Z,95.66
2022-09-24T00:47:56.229Z,95.67
2022-09-24T00:50:57.631Z,94.92
2022-09-24T00:54:07.690Z,94.26
2022-09-24T00:57:09.166Z,94.11
2022-09-24T01:00:11.368Z,93.75
2022-09-24T01:03:20.023Z,94.58
2022-09-24T01:06:21.772Z,93.80
2022-09-24T01:09:26.353Z,95.19
2022-09-24T01:13:19.119Z,95.24
2022-09-24T01:16:49.602Z,94.23
2022-09-24T01:20:01.181Z,95.01
2022-09-24T01:23:23.769Z,94.37
2022-09-24T01:26:57.657Z,94.80
2022-09-24T01:30:11.610Z,94.56
2022-09-24T01:33:19.096Z,95.23
2022-09-24T01:36:22.394Z,95.63
2022-09-24T01:39:25.801Z,96.05
2022-09-24T01:42:30.549Z,97.54
2022-09-24T01:45:33.082Z,96.83
2022-09-24T01:48:37.570Z,96.35
2022-09-24T01:51:51.840Z,96.54
2022-09-24T01:54:56.388Z,96.43
2022-09-24T01:58:19.210Z,97.11
2022-09-24T02:01:31.451Z,97.92
2022-09-24T02:04:41.806Z,98.27
2022-09-24T02:08:04.041Z,98.60
2022-09-24T02:11:13.962Z,97.19
2022-09-24T02:14:15.588Z,99.06
2022-09-24T02:17:17.694Z,99.68
2022-09-24T02:20:22.145Z,100.00
2022-09-24T02:23:25.934Z,99.54
2022-09-24T02:26:27.444Z,100.00
2022-09-24T02:29:29.251Z,100.00
2022-09-24T02:32:34.220Z,100.00
2022-09-24T02:35:40.670Z,100.00
2022-09-24T02:38:43.109Z,100.00
2022-09-24T02:41:49.926Z,100.00
2022-09-24T02:44:52.401Z,100.00
2022-09-24T02:47:54.491Z,100.00
2022-09-24T02:50:55.880Z,100.00
2022-09-24T02:53:57.250Z,100.00
2022-09-24T02:56:58.645Z,100.00
2022-09-24T03:00:00.093Z,100.00
2022-09-24T03:03:01.516Z,100.00
2022-09-24T03:06:03.058Z,100.00
2022-09-24T03:09:05.501Z,100.00
2022-09-24T03:12:06.876Z,100.00
2022-09-24T03:15:08.508Z,100.00
2022-09-24T03:18:09.873Z,100.00
2022-09-24T03:21:12.995Z,100.00
2022-09-24T03:24:14.366Z,100.00
2022-09-24T03:27:16.179Z,100.00
2022-09-24T03:30:36.469Z,100.00
2022-09-24T03:33:39.399Z,100.00
2022-09-24T03:36:40.784Z,100.00
2022-09-24T03:39:42.163Z,100.00
2022-09-24T03:42:43.831Z,100.00
2022-09-24T03:45:45.590Z,100.00
2022-09-24T03:48:47.557Z,100.00
2022-09-24T03:51:50.188Z,100.00
2022-09-24T03:54:52.048Z,100.00
2022-09-24T03:57:53.435Z,100.00
2022-09-24T04:00:55.221Z,100.00
2022-09-24T04:03:56.607Z,100.00
2022-09-24T04:06:58.940Z,100.00
2022-09-24T04:10:00.413Z,100.00
2022-09-24T04:13:02.742Z,100.00
2022-09-24T04:16:05.369Z,100.00
2022-09-24T04:19:08.042Z,100.00
2022-09-24T04:22:09.692Z,100.00
2022-09-24T04:25:14.767Z,100.00
2022-09-24T04:28:16.374Z,100.00
2022-09-24T04:31:17.908Z,100.00
2022-09-24T04:34:20.770Z,100.00
2022-09-24T04:37:22.186Z,100.00
2022-09-24T04:40:23.618Z,100.00
2022-09-24T04:43:25.040Z,100.00
2022-09-24T04:46:26.496Z,100.00
2022-09-24T04:49:29.554Z,100.00
2022-09-24T04:52:33.220Z,100.00
2022-09-24T04:55:34.946Z,100.00
2022-09-24T04:58:36.557Z,100.00
2022-09-24T05:01:38.030Z,100.00
2022-09-24T05:04:39.543Z,100.00
2022-09-24T05:07:42.015Z,100.00
2022-09-24T05:10:43.760Z,100.00
2022-09-24T05:13:45.209Z,100.00
2022-09-24T05:16:46.569Z,100.00
2022-09-24T05:19:47.971Z,100.00
2022-09-24T05:22:50.498Z,100.00
2022-09-24T05:26:10.402Z,100.00
2022-09-24T05:29:11.840Z,100.00
2022-09-24T05:32:16.062Z,100.00
2022-09-24T05:35:21.545Z,100.00
2022-09-24T05:38:23.124Z,100.00
2022-09-24T05:41:24.499Z,100.00
2022-09-24T05:44:25.874Z,100.00
2022-09-24T05:47:27.237Z,100.00
2022-09-24T05:50:28.871Z,100.00
2022-09-24T05:53:30.374Z,100.00
2022-09-24T05:56:32.026Z,100.00
2022-09-24T05:59:33.509Z,100.00
2022-09-24T06:02:34.935Z,100.00
2022-09-24T06:05:36.585Z,100.00
2022-09-24T06:08:37.953Z,100.00
2022-09-24T06:11:40.990Z,100.00
2022-09-24T06:14:42.578Z,100.00
2022-09-24T06:17:43.963Z,100.00
2022-09-24T06:20:46.873Z,100.00
2022-09-24T06:23:48.539Z,100.00
2022-09-24T06:26:49.925Z,100.00
2022-09-24T06:29:51.312Z,100.00
2022-09-24T06:32:52.754Z,100.00
2022-09-24T06:35:54.205Z,100.00
2022-09-24T06:38:55.581Z,100.00
2022-09-24T06:41:58.364Z,100.00
2022-09-24T06:45:00.575Z,100.00
2022-09-24T06:48:03.838Z,100.00
2022-09-24T06:51:05.766Z,100.00
2022-09-24T06:54:07.142Z,100.00
2022-09-24T06:57:08.525Z,100.00
2022-09-24T07:00:11.297Z,100.00
2022-09-24T07:03:16.484Z,100.00
2022-09-24T07:06:17.892Z,100.00
2022-09-24T07:09:19.280Z,100.00
2022-09-24T07:12:20.645Z,100.00
2022-09-24T07:15:22.040Z,100.00
2022-09-24T07:18:23.465Z,100.00
2022-09-24T07:21:25.124Z,99.39
2022-09-24T07:24:26.495Z,98.72
2022-09-24T07:27:27.867Z,98.58
2022-09-24T07:30:29.494Z,97.16
2022-09-24T07:33:31.932Z,97.02
2022-09-24T07:36:33.521Z,95.79
2022-09-24T07:39:34.992Z,95.41
2022-09-24T07:42:37.167Z,94.14
2022-09-24T07:45:38.640Z,93.62
2022-09-24T07:48:40.031Z,93.31
2022-09-24T07:51:41.532Z,92.62
2022-09-24T07:54:42.989Z,91.54
2022-09-24T07:57:48.836Z,91.26
2022-09-24T08:00:50.321Z,91.72
2022-09-24T08:03:52.438Z,91.42
2022-09-24T08:06:53.943Z,89.83
2022-09-24T08:09:55.463Z,88.78
2022-09-24T08:13:01.624Z,90.22
2022-09-24T08:16:04.627Z,90.62
2022-09-24T08:19:06.314Z,92.23
2022-09-24T08:22:08.037Z,92.82
2022-09-24T08:25:09.711Z,93.64
2022-09-24T08:28:12.098Z,94.47
2022-09-24T08:31:13.845Z,94.90
2022-09-24T08:34:15.571Z,94.22
2022-09-24T08:37:18.064Z,93.00
2022-09-24T08:40:25.994Z,93.56
2022-09-24T08:44:04.226Z,92.83
2022-09-24T08:47:22.888Z,92.42
2022-09-24T08:50:27.105Z,92.72
2022-09-24T08:53:36.165Z,92.46
2022-09-24T08:56:43.899Z,90.92
2022-09-24T08:59:50.675Z,90.98
2022-09-24T09:03:09.469Z,90.39
2022-09-24T09:06:40.579Z,90.76
2022-09-24T09:09:48.239Z,91.05
2022-09-24T09:12:56.819Z,91.53
2022-09-24T09:16:06.476Z,92.17
2022-09-24T09:19:13.178Z,90.77
2022-09-24T09:22:16.619Z,89.63
2022-09-24T09:25:28.447Z,90.33
2022-09-24T09:28:29.959Z,89.59
2022-09-24T09:32:00.444Z,90.16
2022-09-24T09:35:29.655Z,87.95
2022-09-24T09:38:53.077Z,86.46
2022-09-24T09:42:06.228Z,87.24
2022-09-24T09:45:16.766Z,86.26
2022-09-24T09:48:22.226Z,87.30
2022-09-24T09:51:30.673Z,85.83
2022-09-24T09:54:39.462Z,85.17
2022-09-24T09:57:41.353Z,86.35
2022-09-24T10:00:43.814Z,85.77
2022-09-24T10:03:46.179Z,85.83
2022-09-24T10:06:47.643Z,85.01
2022-09-24T10:10:03.262Z,84.88
2022-09-24T10:13:08.938Z,86.16
2022-09-24T10:16:13.317Z,85.81
2022-09-24T10:19:20.378Z,85.79
2022-09-24T10:22:25.087Z,84.93
2022-09-24T10:25:28.667Z,83.67
2022-09-24T10:28:50.080Z,85.14
2022-09-24T10:31:51.550Z,86.30
2022-09-24T10:35:18.660Z,86.00
2022-09-24T10:38:24.993Z,86.45
2022-09-24T10:41:28.548Z,86.32
2022-09-24T10:44:35.956Z,86.30
2022-09-24T10:48:01.463Z,85.68
2022-09-24T10:51:28.771Z,84.26
2022-09-24T10:54:42.474Z,85.21
2022-09-24T10:57:59.538Z,85.97
2022-09-24T11:01:07.071Z,84.86
2022-09-24T11:04:42.326Z,85.55
2022-09-24T11:07:52.546Z,85.86
2022-09-24T11:11:01.501Z,84.01
2022-09-24T11:14:24.830Z,83.91
2022-09-24T11:17:38.314Z,85.43
2022-09-24T11:20:49.834Z,85.78
2022-09-24T11:24:27.161Z,86.03
2022-09-24T11:28:00.230Z,85.69
2022-09-24T11:31:20.021Z,87.13
2022-09-24T11:34:49.106Z,86.46
2022-09-24T11:38:00.297Z,86.20
2022-09-24T11:41:11.367Z,86.20
2022-09-24T11:44:21.157Z,86.62
2022-09-24T11:47:40.853Z,86.51
2022-09-24T11:51:11.690Z,86.04
2022-09-24T11:54:24.822Z,85.52
2022-09-24T11:57:30.431Z,85.60
2022-09-24T12:00:40.500Z,84.79
2022-09-24T12:03:49.354Z,85.06
2022-09-24T12:06:58.229Z,86.01
2022-09-24T12:10:04.813Z,82.95
2022-09-24T12:13:15.927Z,83.89
2022-09-24T12:16:33.138Z,82.72
2022-09-24T12:19:38.656Z,81.63
2022-09-24T12:22:43.049Z,83.48
2022-09-24T12:25:47.565Z,83.56
2022-09-24T12:29:44.111Z,82.68
2022-09-24T12:33:00.779Z,82.91
2022-09-24T12:36:15.363Z,81.59
2022-09-24T12:39:21.461Z,80.16
2022-09-24T12:42:27.133Z,79.75
2022-09-24T12:45:29.840Z,80.81
2022-09-24T12:48:36.417Z,79.77
2022-09-24T12:51:39.303Z,77.51
2022-09-24T12:54:41.260Z,79.11
2022-09-24T12:57:51.257Z,80.48
2022-09-24T13:01:06.583Z,81.47
2022-09-24T13:04:14.159Z,81.93
2022-09-24T13:07:29.925Z,81.20
2022-09-24T13:10:36.480Z,79.61
2022-09-24T13:13:43.333Z,78.49
2022-09-24T13:16:51.082Z,79.99
2022-09-24T13:20:07.113Z,80.64
2022-09-24T13:23:14.725Z,80.24
2022-09-24T13:26:25.032Z,80.84
2022-09-24T13:29:26.540Z,81.52
2022-09-24T13:32:29.390Z,81.14
2022-09-24T13:35:34.982Z,81.47
2022-09-24T13:39:06.344Z,81.75
2022-09-24T13:42:15.416Z,80.15
2022-09-24T13:45:22.438Z,80.52
2022-09-24T13:48:38.811Z,79.71
2022-09-24T13:51:41.625Z,80.08
2022-09-24T13:54:53.479Z,79.24
2022-09-24T13:57:56.045Z,80.48
2022-09-24T14:01:00.145Z,77.89
2022-09-24T14:04:05.698Z,76.29
2022-09-24T14:07:07.213Z,75.01
2022-09-24T14:10:14.377Z,75.35
2022-09-24T14:13:21.361Z,76.58
2022-09-24T14:16:24.473Z,74.51
2022-09-24T14:19:25.935Z,74.37
2022-09-24T14:22:34.941Z,71.12
2022-09-24T14:25:39.716Z,69.35
2022-09-24T14:28:41.331Z,69.51
2022-09-24T14:31:52.113Z,69.78
2022-09-24T14:35:00.016Z,68.78
2022-09-24T14:38:06.516Z,66.50
2022-09-24T14:41:18.373Z,68.30
2022-09-24T14:44:25.324Z,70.41
2022-09-24T14:47:29.810Z,72.12
2022-09-24T14:50:37.705Z,72.94
2022-09-24T14:53:39.673Z,72.71
2022-09-24T14:56:41.048Z,73.73
2022-09-24T14:59:42.719Z,73.44
2022-09-24T15:02:48.357Z,73.97
2022-09-24T15:05:50.076Z,72.52
2022-09-24T15:09:03.327Z,72.46
2022-09-24T15:12:09.012Z,73.04
2022-09-24T15:15:16.820Z,73.01
2022-09-24T15:18:18.336Z,73.87
2022-09-24T15:21:19.706Z,73.34
2022-09-24T15:24:22.016Z,72.71
2022-09-24T15:27:32.122Z,73.92
2022-09-24T15:30:34.237Z,73.85
2022-09-24T15:33:35.686Z,73.50
2022-09-24T15:36:37.829Z,75.52
2022-09-24T15:39:39.883Z,74.69
2022-09-24T15:42:41.278Z,74.94
2022-09-24T15:45:42.899Z,74.28
2022-09-24T15:48:44.403Z,74.06
2022-09-24T15:51:45.776Z,74.62
2022-09-24T15:54:47.306Z,74.54
2022-09-24T15:57:48.882Z,75.48
2022-09-24T16:00:52.236Z,77.02
2022-09-24T16:03:54.170Z,76.96
2022-09-24T16:06:55.581Z,77.14
2022-09-24T16:09:56.982Z,76.97
2022-09-24T16:12:58.446Z,77.75
2022-09-24T16:16:04.635Z,77.56
2022-09-24T16:19:09.677Z,77.46
2022-09-24T16:22:11.138Z,78.11
2022-09-24T16:25:12.616Z,79.65
2022-09-24T16:28:13.981Z,80.82
2022-09-24T16:31:15.506Z,81.44
2022-09-24T16:34:17.238Z,81.97
2022-09-24T16:37:18.701Z,82.47
2022-09-24T16:40:20.146Z,82.70
2022-09-24T16:43:21.582Z,82.51
2022-09-24T16:46:23.370Z,82.30
2022-09-24T16:49:24.875Z,82.58
2022-09-24T16:52:26.286Z,83.20
2022-09-24T16:55:28.399Z,84.35
2022-09-24T16:58:32.717Z,83.60
2022-09-24T17:01:34.201Z,84.16
2022-09-24T17:04:36.682Z,84.63
2022-09-24T17:07:38.133Z,84.77
2022-09-24T17:10:43.054Z,85.45
2022-09-24T17:13:47.287Z,85.90
2022-09-24T17:16:48.798Z,85.82
2022-09-24T17:19:50.168Z,85.72
2022-09-24T17:22:51.544Z,87.13
2022-09-24T17:26:14.075Z,87.00
2022-09-24T17:29:15.572Z,86.72
2022-09-24T17:32:16.955Z,87.61
2022-09-24T17:35:18.720Z,87.85
2022-09-24T17:38:20.412Z,88.20
2022-09-24T17:41:23.303Z,88.69
2022-09-24T17:44:24.678Z,88.42
2022-09-24T17:47:46.076Z,88.02
2022-09-24T17:50:54.014Z,88.84
2022-09-24T17:53:55.471Z,88.17
2022-09-24T17:56:56.938Z,88.19
2022-09-24T17:59:58.355Z,89.19
2022-09-24T18:02:59.864Z,89.71
2022-09-24T18:06:03.474Z,90.85
2022-09-24T18:09:05.365Z,92.20
2022-09-24T18:12:07.402Z,93.16
2022-09-24T18:15:09.033Z,93.56
2022-09-24T18:18:10.417Z,89.00
2022-09-24T18:21:13.518Z,86.77
2022-09-24T18:24:16.288Z,82.36
2022-09-24T18:27:17.661Z,80.18
2022-09-24T18:30:19.072Z,79.86
2022-09-24T18:33:20.473Z,77.45
2022-09-24T18:36:23.394Z,76.83
2022-09-24T18:39:25.705Z,77.91
2022-09-24T18:42:28.096Z,82.78
2022-09-24T18:45:30.255Z,92.08
2022-09-24T18:48:32.494Z,99.87
2022-09-24T18:51:37.548Z,100.00
2022-09-24T18:54:39.453Z,100.00
2022-09-24T18:57:40.852Z,100.00
2022-09-24T19:00:51.349Z,100.00
2022-09-24T19:03:53.945Z,100.00
2022-09-24T19:06:55.358Z,100.00
2022-09-24T19:09:57.018Z,100.00
2022-09-24T19:12:58.422Z,100.00
2022-09-24T19:16:14.098Z,100.00
2022-09-24T19:19:16.073Z,100.00
2022-09-24T19:22:17.465Z,100.00
2022-09-24T19:25:18.850Z,100.00
2022-09-24T19:28:20.231Z,100.00
2022-09-24T19:31:24.657Z,100.00
2022-09-24T19:34:26.184Z,100.00
2022-09-24T19:37:29.163Z,100.00
2022-09-24T19:40:30.931Z,100.00
2022-09-24T19:43:34.087Z,100.00
2022-09-24T19:46:35.550Z,100.00
2022-09-24T19:49:36.995Z,100.00
2022-09-24T19:52:38.412Z,100.00
2022-09-24T19:55:39.793Z,100.00
2022-09-24T19:58:41.269Z,100.00
2022-09-24T20:01:43.045Z,100.00
2022-09-24T20:04:44.510Z,100.00
2022-09-24T20:07:46.374Z,100.00
2022-09-24T20:10:47.775Z,100.00
2022-09-24T20:13:50.237Z,100.00
2022-09-24T20:16:51.614Z,100.00
2022-09-24T20:19:53.070Z,100.00
2022-09-24T20:22:54.462Z,100.00
2022-09-24T20:26:14.632Z,100.00
2022-09-24T20:29:19.435Z,100.00
2022-09-24T20:32:20.861Z,100.00
2022-09-24T20:35:22.229Z,100.00
2022-09-24T20:38:23.589Z,100.00
2022-09-24T20:41:25.775Z,100.00
2022-09-24T20:44:27.177Z,100.00
2022-09-24T20:47:28.553Z,100.00
2022-09-24T20:50:31.926Z,100.00
2022-09-24T20:53:34.541Z,100.00
2022-09-24T20:56:36.151Z,100.00
2022-09-24T20:59:37.601Z,100.00
2022-09-24T21:02:41.538Z,100.00
2022-09-24T21:05:43.966Z,100.00
2022-09-24T21:08:46.588Z,100.00
2022-09-24T21:11:50.149Z,100.00
2022-09-24T21:14:52.681Z,100.00
2022-09-24T21:18:18.449Z,100.00
2022-09-24T21:21:18.078Z,100.00
2022-09-24T21:24:19.902Z,100.00
2022-09-24T21:27:21.502Z,100.00
2022-09-24T21:30:22.894Z,100.00
2022-09-24T21:33:24.285Z,100.00
2022-09-24T21:36:29.176Z,100.00
2022-09-24T21:39:30.562Z,100.00
2022-09-24T21:42:32.190Z,100.00
2022-09-24T21:45:34.014Z,100.00
2022-09-24T21:48:35.570Z,100.00
2022-09-24T21:51:38.125Z,100.00
2022-09-24T21:54:39.658Z,100.00
2022-09-24T21:57:41.105Z,100.00
2022-09-24T22:00:42.854Z,100.00
2022-09-24T22:03:51.684Z,100.00
2022-09-24T22:06:53.317Z,100.00
2022-09-24T22:09:54.681Z,100.00
2022-09-24T22:12:56.114Z,100.00
2022-09-24T22:15:59.799Z,100.00
2022-09-24T22:19:03.431Z,100.00
2022-09-24T22:22:04.846Z,100.00
2022-09-24T22:25:06.882Z,100.00
2022-09-24T22:28:08.297Z,100.00
2022-09-24T22:31:13.178Z,100.00
2022-09-24T22:34:33.028Z,100.00
2022-09-24T22:37:34.561Z,100.00
2022-09-24T22:40:36.140Z,100.00
2022-09-24T22:43:38.937Z,100.00
2022-09-24T22:46:41.306Z,100.00
2022-09-24T22:49:42.867Z,100.00
2022-09-24T22:52:44.248Z,100.00
2022-09-24T22:55:48.215Z,100.00
2022-09-24T22:58:56.075Z,100.00
2022-09-24T23:01:57.502Z,100.00
2022-09-24T23:04:59.412Z,100.00
2022-09-24T23:08:01.751Z,100.00
2022-09-24T23:11:15.274Z,100.00
2022-09-24T23:14:16.933Z,100.00
2022-09-24T23:17:19.093Z,100.00
2022-09-24T23:20:21.867Z,100.00
2022-09-24T23:23:23.247Z,100.00
2022-09-24T23:26:25.954Z,100.00
2022-09-24T23:29:27.328Z,100.00
2022-09-24T23:32:28.735Z,100.00
2022-09-24T23:35:30.167Z,100.00
2022-09-24T23:38:31.759Z,100.00
2022-09-24T23:41:33.373Z,100.00
2022-09-24T23:44:35.058Z,100.00
2022-09-24T23:47:36.464Z,100.00
2022-09-24T23:50:37.970Z,100.00
2022-09-24T23:53:39.793Z,100.00
2022-09-24T23:56:41.154Z,100.00
2022-09-24T23:59:42.525Z,100.00
